createdAt,value
2023-05-23T00:04:38.141Z,11.50
2023-05-23T00:09:31.427Z,9.70
2023-05-23T00:14:25.026Z,10.30
2023-05-23T00:19:18.014Z,8.90
2023-05-23T00:24:11.218Z,9.90
2023-05-23T00:29:05.340Z,9.00
2023-05-23T00:33:58.280Z,8.60
2023-05-23T00:38:51.150Z,8.90
2023-05-23T00:43:44.813Z,9.60
2023-05-23T00:48:38.800Z,7.90
2023-05-23T00:53:32.032Z,13.00
2023-05-23T00:58:26.278Z,13.20
2023-05-23T01:03:20.200Z,11.20
2023-05-23T01:08:16.066Z,8.70
2023-05-23T01:13:49.682Z,10.30
2023-05-23T01:18:50.639Z,9.40
2023-05-23T01:24:09.919Z,8.90
2023-05-23T01:29:10.703Z,13.00
2023-05-23T01:34:03.952Z,13.10
2023-05-23T01:38:56.890Z,10.50
2023-05-23T01:43:49.902Z,8.20
2023-05-23T01:48:43.884Z,12.80
2023-05-23T01:53:37.617Z,11.30
2023-05-23T01:58:31.174Z,10.50
2023-05-23T02:03:24.290Z,9.70
2023-05-23T02:08:17.463Z,8.60
2023-05-23T02:13:10.434Z,10.00
2023-05-23T02:18:03.403Z,9.10
2023-05-23T02:22:57.096Z,9.30
2023-05-23T02:27:49.961Z,10.00
2023-05-23T02:32:42.854Z,9.50
2023-05-23T02:37:35.736Z,10.90
2023-05-23T02:42:30.879Z,9.60
2023-05-23T02:47:23.853Z,8.50
2023-05-23T02:52:17.163Z,9.90
2023-05-23T02:57:10.564Z,8.80
2023-05-23T03:02:04.963Z,9.70
2023-05-23T03:06:59.901Z,7.90
2023-05-23T03:11:52.922Z,8.00
2023-05-23T03:16:46.563Z,8.10
2023-05-23T03:21:40.260Z,8.50
2023-05-23T03:26:33.770Z,9.20
2023-05-23T03:31:26.918Z,8.60
2023-05-23T03:36:19.986Z,8.40
2023-05-23T03:41:13.102Z,7.60
2023-05-23T03:46:06.376Z,8.50
2023-05-23T03:50:59.511Z,9.30
2023-05-23T03:55:54.309Z,8.90
2023-05-23T04:00:47.895Z,8.80
2023-05-23T04:05:41.966Z,7.60
2023-05-23T04:10:36.432Z,18.80
2023-05-23T04:15:30.020Z,11.10
2023-05-23T04:20:26.170Z,7.80
2023-05-23T04:25:20.833Z,16.10
2023-05-23T04:30:25.063Z,11.30
2023-05-23T04:35:18.270Z,10.40
2023-05-23T04:40:13.628Z,6.10
2023-05-23T04:45:14.021Z,8.20
2023-05-23T04:50:25.062Z,7.00
2023-05-23T04:55:18.211Z,6.50
2023-05-23T05:00:12.976Z,8.20
2023-05-23T05:05:07.490Z,6.70
2023-05-23T05:10:01.345Z,6.40
2023-05-23T05:14:55.441Z,17.60
2023-05-23T05:19:49.139Z,8.90
2023-05-23T05:24:43.684Z,10.20
2023-05-23T05:29:37.644Z,5.50
2023-05-23T05:34:31.069Z,7.10
2023-05-23T05:39:27.004Z,8.90
2023-05-23T05:44:21.219Z,7.10
2023-05-23T05:49:14.399Z,8.00
2023-05-23T05:54:08.429Z,10.70
2023-05-23T05:59:01.558Z,8.00
2023-05-23T06:03:55.257Z,9.20
2023-05-23T06:08:48.905Z,11.00
2023-05-23T06:13:42.757Z,5.10
2023-05-23T06:18:35.858Z,4.90
2023-05-23T06:23:29.415Z,4.40
2023-05-23T06:28:22.484Z,9.10
2023-05-23T06:33:16.430Z,4.40
2023-05-23T06:38:09.625Z,4.60
2023-05-23T06:43:02.464Z,4.80
2023-05-23T06:48:06.116Z,5.00
2023-05-23T06:52:59.757Z,3.10
2023-05-23T06:57:52.690Z,3.20
2023-05-23T07:02:48.838Z,3.90
2023-05-23T07:07:44.862Z,5.40
2023-05-23T07:12:37.822Z,4.60
2023-05-23T07:17:31.596Z,3.10
2023-05-23T07:22:24.556Z,3.60
2023-05-23T07:27:18.589Z,3.30
2023-05-23T07:32:12.071Z,2.80
2023-05-23T07:37:05.237Z,5.00
2023-05-23T07:42:04.511Z,5.40
2023-05-23T07:46:58.049Z,3.50
2023-05-23T07:51:51.633Z,2.90
2023-05-23T07:56:45.344Z,5.20
2023-05-23T08:01:38.912Z,6.90
2023-05-23T08:06:33.806Z,4.20
2023-05-23T08:11:30.574Z,3.40
2023-05-23T08:16:23.854Z,3.40
2023-05-23T08:21:17.980Z,3.20
2023-05-23T08:26:11.343Z,3.50
2023-05-23T08:31:04.922Z,2.40
2023-05-23T08:35:57.937Z,4.20
2023-05-23T08:40:52.702Z,4.20
2023-05-23T08:45:47.059Z,5.20
2023-05-23T08:50:43.383Z,6.50
2023-05-23T08:55:38.790Z,6.20
2023-05-23T09:00:33.124Z,2.80
2023-05-23T09:05:27.839Z,2.50
2023-05-23T09:15:17.527Z,2.60
2023-05-23T09:20:16.038Z,4.30
2023-05-23T09:25:14.810Z,6.10
2023-05-23T09:30:10.271Z,2.60
2023-05-23T09:35:05.504Z,2.90
2023-05-23T09:40:00.816Z,2.70
2023-05-23T09:44:55.187Z,3.00
2023-05-23T09:49:48.344Z,6.30
2023-05-23T09:54:42.005Z,5.40
2023-05-23T09:59:36.444Z,3.00
2023-05-23T10:04:32.950Z,3.60
2023-05-23T10:09:28.335Z,2.70
2023-05-23T10:14:21.319Z,3.00
2023-05-23T10:19:43.658Z,5.60
2023-05-23T10:24:37.741Z,3.50
2023-05-23T10:29:31.216Z,4.60
2023-05-23T10:34:52.443Z,4.50
2023-05-23T10:39:51.346Z,5.00
2023-05-23T10:44:44.460Z,3.20
2023-05-23T10:49:45.176Z,2.50
2023-05-23T10:54:44.139Z,3.20
2023-05-23T10:59:39.721Z,4.10
2023-05-23T11:04:32.578Z,3.00
2023-05-23T11:09:25.598Z,3.30
2023-05-23T11:14:18.503Z,4.50
2023-05-23T11:19:20.474Z,2.90
2023-05-23T11:24:13.922Z,3.50
2023-05-23T11:29:10.884Z,3.70
2023-05-23T11:34:03.909Z,2.80
2023-05-23T11:38:57.949Z,4.00
2023-05-23T11:43:52.638Z,3.50
2023-05-23T11:48:51.019Z,5.30
2023-05-23T11:53:44.906Z,4.00
2023-05-23T11:58:40.266Z,3.90
2023-05-23T12:03:34.120Z,3.70
2023-05-23T12:08:27.265Z,4.20
2023-05-23T12:13:21.448Z,4.20
2023-05-23T12:18:14.674Z,3.90
2023-05-23T12:23:07.678Z,8.60
2023-05-23T12:28:01.628Z,7.20
2023-05-23T12:32:55.225Z,3.20
2023-05-23T12:37:48.685Z,3.60
2023-05-23T12:42:54.484Z,3.20
2023-05-23T12:47:56.237Z,2.80
2023-05-23T12:52:49.805Z,3.30
2023-05-23T13:03:56.072Z,3.50
2023-05-23T13:09:22.515Z,4.00
2023-05-23T13:14:24.718Z,4.90
2023-05-23T13:19:21.033Z,3.20
2023-05-23T13:24:19.361Z,3.20
2023-05-23T13:29:12.566Z,3.50
2023-05-23T13:34:07.307Z,3.90
2023-05-23T13:39:18.134Z,3.10
2023-05-23T13:44:20.668Z,3.70
2023-05-23T13:49:24.740Z,4.10
2023-05-23T13:54:34.545Z,5.70
2023-05-23T13:59:56.638Z,3.90
2023-05-23T14:06:01.381Z,3.80
2023-05-23T15:02:22.666Z,4.00
2023-05-23T15:09:51.319Z,5.30
2023-05-23T15:35:04.328Z,4.60
2023-05-23T15:40:41.596Z,4.70
2023-05-23T15:53:14.517Z,5.80
2023-05-23T16:20:04.231Z,4.60
2023-05-23T16:32:24.097Z,4.40
2023-05-23T17:07:00.382Z,13.80
2023-05-23T18:14:10.950Z,7.30
2023-05-23T18:57:05.044Z,9.00
2023-05-23T19:01:58.693Z,9.90
2023-05-23T19:06:50.835Z,10.30
2023-05-23T19:11:42.331Z,12.80
2023-05-23T19:16:35.659Z,8.20
2023-05-23T19:21:27.743Z,10.20
2023-05-23T19:26:20.980Z,9.30
2023-05-23T19:31:13.559Z,13.30
2023-05-23T19:36:09.266Z,10.30
2023-05-23T19:41:14.400Z,7.80
2023-05-23T19:46:08.377Z,13.30
2023-05-23T19:51:00.374Z,10.50
2023-05-23T20:17:10.521Z,11.60
2023-05-23T20:23:03.048Z,11.30
2023-05-23T20:35:29.617Z,12.30
2023-05-23T20:40:43.513Z,10.70
2023-05-23T20:45:37.673Z,12.40
2023-05-23T20:50:32.124Z,12.10
2023-05-23T20:55:35.837Z,15.00
2023-05-23T21:00:29.305Z,14.30
2023-05-23T21:05:20.849Z,12.40
2023-05-23T21:10:12.475Z,12.70
2023-05-23T21:15:09.192Z,15.10
2023-05-23T21:20:00.683Z,15.70
2023-05-23T21:24:52.296Z,13.60
2023-05-23T21:29:46.206Z,9.90
2023-05-23T21:34:37.721Z,9.50
2023-05-23T21:39:47.004Z,11.30
2023-05-23T21:44:41.928Z,10.10
2023-05-23T21:49:34.786Z,16.90
2023-05-23T21:54:30.590Z,11.50
2023-05-23T21:59:24.591Z,12.70
2023-05-23T22:04:18.539Z,10.70
2023-05-23T22:09:13.664Z,10.00
2023-05-23T22:14:09.286Z,11.60
2023-05-23T22:19:18.859Z,9.00
2023-05-23T22:24:13.873Z,10.90
2023-05-23T22:29:19.883Z,9.30
2023-05-23T22:34:17.884Z,12.40
2023-05-23T22:39:20.509Z,12.70
2023-05-23T22:44:12.859Z,12.00
2023-05-23T22:49:31.126Z,12.40
2023-05-23T22:55:03.046Z,10.80
2023-05-23T23:00:15.380Z,9.50
2023-05-23T23:05:12.024Z,11.80
2023-05-23T23:10:11.517Z,11.40
2023-05-23T23:21:08.252Z,10.70
2023-05-23T23:25:59.623Z,10.30
2023-05-23T23:30:51.979Z,12.80
2023-05-23T23:35:45.857Z,9.10
2023-05-23T23:40:37.406Z,8.60
2023-05-23T23:45:28.970Z,8.70
2023-05-23T23:50:21.885Z,13.70
2023-05-23T23:55:15.254Z,13.30
